Time;durP1;ratioP1;P1;durP2;ratioP2;P2;SDS_P1;SDS_P2;PMS_P1;PMS_P2;Temp;Humidity;BMP_temperature;BMP_pressure;BME280_temperature;BME280_humidity;BME280_pressure;Samples;Min_cycle;Max_cycle;Signal;HPM_P1;HPM_P2
2022/07/24 00:02:02;;;;;;;9.40;2.50;;;;;;;13.97;92.13;99871.00;104853;1273;61026;-74
2022/07/24 00:04:53;;;;;;;7.60;1.90;;;;;;;14.02;92.68;99868.70;104779;1273;73341;-76
2022/07/24 00:07:41;;;;;;;9.80;2.00;;;;;;;14.06;93.29;99865.86;104917;1273;68568;-74
2022/07/24 00:10:31;;;;;;;9.50;2.40;;;;;;;14.08;93.77;99864.59;105181;1271;73561;-76
2022/07/24 00:13:19;;;;;;;9.10;2.50;;;;;;;14.11;94.46;99863.80;105029;1271;61457;-75
2022/07/24 00:16:07;;;;;;;6.80;2.60;;;;;;;14.11;94.83;99858.73;105063;1271;62186;-74
2022/07/24 00:18:56;;;;;;;9.10;2.50;;;;;;;14.14;94.64;99861.38;104979;1271;73217;-74
2022/07/24 00:21:44;;;;;;;6.90;2.10;;;;;;;14.14;95.23;99853.98;104829;1273;67115;-75
2022/07/24 00:24:31;;;;;;;6.80;2.30;;;;;;;14.16;94.77;99853.92;104976;1271;72470;-75
2022/07/24 00:27:20;;;;;;;7.70;2.20;;;;;;;14.11;95.59;99840.92;104882;1271;60856;-75
2022/07/24 00:30:09;;;;;;;8.00;2.00;;;;;;;14.17;95.57;99847.53;104924;1271;61402;-75
2022/07/24 00:32:56;;;;;;;7.70;2.20;;;;;;;14.18;96.20;99843.38;104991;1271;72034;-75
2022/07/24 00:35:44;;;;;;;6.40;1.70;;;;;;;14.17;96.20;99841.85;104872;1272;67058;-73
2022/07/24 00:38:33;;;;;;;6.70;1.80;;;;;;;14.17;96.79;99845.06;104944;1271;74496;-74
2022/07/24 00:41:21;;;;;;;6.90;1.60;;;;;;;14.16;97.16;99845.32;104898;1274;59793;-75
2022/07/24 00:44:15;;;;;;;6.80;1.90;;;;;;;14.17;97.92;99848.55;104974;1272;62509;-74
2022/07/24 00:47:04;;;;;;;6.30;1.60;;;;;;;14.18;98.27;99848.66;104724;1274;74628;-73
2022/07/24 00:49:54;;;;;;;5.30;1.70;;;;;;;14.21;98.69;99847.15;105067;1271;67618;-73
2022/07/24 00:52:45;;;;;;;7.80;1.80;;;;;;;14.22;98.95;99852.16;105230;1271;71627;-74
2022/07/24 00:55:35;;;;;;;6.10;1.70;;;;;;;14.26;98.95;99852.03;104918;1271;61024;-74
2022/07/24 00:58:23;;;;;;;5.80;1.60;;;;;;;14.30;99.01;99856.04;104925;1271;61898;-75
2022/07/24 01:01:11;;;;;;;6.90;2.00;;;;;;;14.34;98.81;99854.13;104818;1274;75061;-73
2022/07/24 01:04:01;;;;;;;6.90;1.80;;;;;;;14.37;99.24;99850.23;104911;1274;66467;-73
2022/07/24 01:06:50;;;;;;;5.40;1.80;;;;;;;14.40;99.46;99852.11;104883;1271;72866;-72
2022/07/24 01:09:40;;;;;;;5.30;1.50;;;;;;;14.42;99.65;99850.99;104952;1271;60271;-73
2022/07/24 01:12:31;;;;;;;5.60;1.60;;;;;;;14.44;99.78;99850.98;104948;1271;60413;-74
2022/07/24 01:15:19;;;;;;;5.00;1.50;;;;;;;14.46;99.72;99851.84;105078;1272;73463;-74
2022/07/24 01:18:08;;;;;;;5.10;1.30;;;;;;;14.44;99.52;99841.14;104897;1273;67145;-75
2022/07/24 01:20:56;;;;;;;6.70;1.70;;;;;;;14.49;100.00;99847.29;105043;1271;74485;-73
2022/07/24 01:23:45;;;;;;;5.20;1.60;;;;;;;14.49;99.89;99849.80;104859;1272;60351;-74
2022/07/24 01:26:33;;;;;;;5.00;1.60;;;;;;;14.48;100.00;99848.42;104783;1274;60741;-75
2022/07/24 01:29:21;;;;;;;5.10;1.20;;;;;;;14.49;100.00;99846.39;105191;1271;74162;-73
2022/07/24 01:32:10;;;;;;;4.40;1.30;;;;;;;14.49;100.00;99845.29;105196;1271;66513;-73
2022/07/24 01:34:58;;;;;;;4.60;1.30;;;;;;;14.48;100.00;99839.17;105010;1273;73956;-71
2022/07/24 01:37:47;;;;;;;4.60;1.10;;;;;;;14.46;100.00;99836.48;104876;1271;59740;-73
2022/07/24 01:40:35;;;;;;;4.80;1.20;;;;;;;14.44;100.00;99835.05;105024;1271;59632;-73
2022/07/24 01:43:23;;;;;;;5.20;1.20;;;;;;;14.43;100.00;99837.27;104821;1271;77118;-72
2022/07/24 01:46:11;;;;;;;4.30;1.00;;;;;;;14.42;100.00;99832.55;105024;1271;67984;-72
2022/07/24 01:49:00;;;;;;;3.70;0.90;;;;;;;14.42;100.00;99832.95;105171;1271;74450;-76
2022/07/24 01:51:48;;;;;;;4.80;1.30;;;;;;;14.41;100.00;99831.60;105030;1271;61934;-73
2022/07/24 01:54:36;;;;;;;5.20;1.30;;;;;;;14.43;100.00;99839.16;105223;1271;60532;-72
2022/07/24 01:57:24;;;;;;;4.60;1.30;;;;;;;14.43;100.00;99841.77;106056;1271;73667;-72
2022/07/24 02:00:18;;;;;;;3.80;1.00;;;;;;;14.46;100.00;99842.34;105668;1271;67477;-72
2022/07/24 02:03:06;;;;;;;3.90;1.00;;;;;;;14.49;100.00;99843.17;105849;1271;73255;-73
2022/07/24 02:05:55;;;;;;;3.90;1.00;;;;;;;14.51;100.00;99839.23;105381;1271;60062;-74
2022/07/24 02:08:43;;;;;;;3.80;1.00;;;;;;;14.53;100.00;99839.59;105145;1271;59586;-74
2022/07/24 02:11:31;;;;;;;4.20;1.00;;;;;;;14.56;100.00;99841.07;105404;1271;74717;-74
2022/07/24 02:14:22;;;;;;;4.50;1.30;;;;;;;14.58;100.00;99847.48;105046;1271;68565;-74
2022/07/24 02:17:10;;;;;;;4.90;1.30;;;;;;;14.62;100.00;99851.73;105112;1271;73541;-73
2022/07/24 02:19:58;;;;;;;4.00;1.00;;;;;;;14.66;100.00;99853.49;105226;1271;60794;-74
2022/07/24 02:22:46;;;;;;;3.20;0.80;;;;;;;14.68;100.00;99852.75;105004;1271;60512;-74
2022/07/24 02:25:34;;;;;;;4.50;1.00;;;;;;;14.69;100.00;99849.85;104932;1271;75339;-75
2022/07/24 02:28:23;;;;;;;4.50;1.00;;;;;;;14.73;100.00;99852.29;105208;1271;68718;-75
2022/07/24 02:31:12;;;;;;;3.50;0.90;;;;;;;14.75;100.00;99854.45;105225;1271;73363;-71
2022/07/24 02:34:01;;;;;;;3.90;0.90;;;;;;;14.76;100.00;99856.45;105095;1271;60765;-73
2022/07/24 02:36:49;;;;;;;3.80;1.00;;;;;;;14.78;100.00;99857.64;105077;1274;60474;-73
2022/07/24 02:39:37;;;;;;;4.40;1.20;;;;;;;14.81;100.00;99858.13;105126;1271;73772;-72
2022/07/24 02:42:25;;;;;;;4.60;1.10;;;;;;;14.82;100.00;99856.58;104910;1271;68625;-73
2022/07/24 02:45:14;;;;;;;4.90;1.30;;;;;;;14.81;100.00;99853.06;104894;1271;73375;-74
2022/07/24 02:48:03;;;;;;;5.30;1.50;;;;;;;14.84;100.00;99854.05;104845;1271;61408;-75
2022/07/24 02:50:52;;;;;;;5.60;1.80;;;;;;;14.88;100.00;99862.46;104813;1274;59642;-74
2022/07/24 02:53:40;;;;;;;6.30;2.20;;;;;;;14.86;100.00;99856.14;104835;1274;72469;-74
2022/07/24 02:56:28;;;;;;;6.10;2.30;;;;;;;14.93;100.00;99865.53;105067;1271;66657;-76
2022/07/24 02:59:17;;;;;;;8.00;2.20;;;;;;;14.97;100.00;99873.67;104939;1275;71785;-74
2022/07/24 03:02:05;;;;;;;6.90;2.60;;;;;;;15.00;100.00;99875.41;104815;1274;59722;-76
2022/07/24 03:04:53;;;;;;;7.10;2.40;;;;;;;15.02;100.00;99880.15;104498;1278;60309;-76
2022/07/24 03:07:42;;;;;;;6.60;2.90;;;;;;;15.06;100.00;99880.98;104719;1279;73259;-75
2022/07/24 03:10:31;;;;;;;6.90;3.00;;;;;;;15.08;100.00;99882.46;105460;1276;68053;-75
2022/07/24 03:13:19;;;;;;;6.80;3.10;;;;;;;15.10;100.00;99883.87;105383;1278;72870;-74
2022/07/24 03:16:07;;;;;;;9.50;3.90;;;;;;;15.12;100.00;99886.27;104732;1277;59654;-73
2022/07/24 03:18:55;;;;;;;9.40;3.80;;;;;;;15.14;100.00;99887.58;104514;1277;61007;-74
2022/07/24 03:21:43;;;;;;;8.40;4.00;;;;;;;15.16;100.00;99892.02;104517;1278;73883;-74
2022/07/24 03:24:35;;;;;;;10.70;4.20;;;;;;;15.16;100.00;99891.61;104717;1277;68790;-73
2022/07/24 03:27:24;;;;;;;9.30;4.90;;;;;;;15.19;100.00;99893.04;104308;1277;74838;-74
2022/07/24 03:30:12;;;;;;;9.80;4.50;;;;;;;15.23;100.00;99891.70;104910;1276;59669;-74
2022/07/24 03:33:01;;;;;;;7.00;3.20;;;;;;;15.28;100.00;99896.14;104794;1276;62312;-73
2022/07/24 03:35:49;;;;;;;8.50;4.00;;;;;;;15.31;100.00;99894.02;104601;1274;72376;-74
2022/07/24 03:38:39;;;;;;;8.30;3.60;;;;;;;15.36;100.00;99897.05;105038;1271;67963;-74
2022/07/24 03:41:27;;;;;;;8.00;3.50;;;;;;;15.38;100.00;99898.04;104885;1271;74370;-73
2022/07/24 03:44:15;;;;;;;8.30;3.90;;;;;;;15.40;100.00;99892.45;105021;1271;59824;-75
2022/07/24 03:47:03;;;;;;;8.40;3.60;;;;;;;15.41;100.00;99892.33;104858;1271;59563;-75
2022/07/24 03:49:52;;;;;;;9.40;5.00;;;;;;;15.41;100.00;99895.55;105149;1271;73562;-74
2022/07/24 03:52:42;;;;;;;9.00;5.00;;;;;;;15.43;100.00;99897.85;105002;1271;66977;-73
2022/07/24 03:55:30;;;;;;;10.30;4.60;;;;;;;15.46;100.00;99898.79;105040;1271;74454;-73
2022/07/24 03:58:18;;;;;;;10.90;5.20;;;;;;;15.49;100.00;99905.13;104761;1271;59720;-72
2022/07/24 04:01:07;;;;;;;11.40;5.00;;;;;;;15.47;100.00;99904.05;104810;1271;61800;-74
2022/07/24 04:03:57;;;;;;;10.50;4.70;;;;;;;15.49;100.00;99900.47;105009;1271;74810;-73
2022/07/24 04:06:46;;;;;;;11.10;5.20;;;;;;;15.53;100.00;99898.89;105044;1271;69759;-74
2022/07/24 04:09:34;;;;;;;10.30;5.20;;;;;;;15.56;100.00;99897.52;105200;1271;72849;-77
2022/07/24 04:12:22;;;;;;;10.00;4.80;;;;;;;15.57;100.00;99904.13;105059;1271;60071;-76
2022/07/24 04:15:10;;;;;;;11.20;4.50;;;;;;;15.58;100.00;99904.02;105111;1270;60801;-76
2022/07/24 04:17:58;;;;;;;10.00;4.90;;;;;;;15.59;100.00;99905.73;105116;1271;74764;-76
2022/07/24 04:20:47;;;;;;;10.40;5.00;;;;;;;15.63;100.00;99907.61;105042;1271;68536;-75
2022/07/24 04:23:35;;;;;;;9.00;4.40;;;;;;;15.68;100.00;99911.84;105068;1271;71405;-75
2022/07/24 04:26:24;;;;;;;11.00;4.60;;;;;;;15.73;100.00;99911.65;104888;1271;59750;-76
2022/07/24 04:29:12;;;;;;;13.70;4.40;;;;;;;15.81;100.00;99908.36;105009;1271;59558;-76
2022/07/24 04:32:03;;;;;;;9.80;4.20;;;;;;;15.99;100.00;99913.20;105093;1271;73189;-77
2022/07/24 04:34:51;;;;;;;7.80;3.70;;;;;;;16.15;100.00;99910.27;105037;1274;66735;-77
2022/07/24 04:37:39;;;;;;;9.30;3.90;;;;;;;16.23;100.00;99910.85;104972;1271;73974;-75
2022/07/24 04:40:28;;;;;;;10.00;4.30;;;;;;;16.29;100.00;99909.84;105069;1271;60259;-76
2022/07/24 04:43:15;;;;;;;9.70;4.30;;;;;;;16.32;100.00;99913.48;105202;1271;60823;-76
2022/07/24 04:46:03;;;;;;;9.40;3.60;;;;;;;16.37;100.00;99913.70;105040;1271;70966;-78
2022/07/24 04:48:51;;;;;;;8.90;3.40;;;;;;;16.45;100.00;99915.19;105091;1271;69558;-78
2022/07/24 04:51:39;;;;;;;7.80;3.20;;;;;;;16.55;99.74;99914.19;105090;1271;72710;-76
2022/07/24 04:54:27;;;;;;;8.10;3.50;;;;;;;16.61;98.79;99911.73;105170;1271;59707;-77
2022/07/24 04:57:15;;;;;;;10.50;3.30;;;;;;;16.74;98.37;99913.67;105086;1271;60100;-78
2022/07/24 05:00:07;;;;;;;7.90;3.30;;;;;;;16.84;97.53;99916.84;105079;1271;71353;-78
2022/07/24 05:02:55;;;;;;;7.70;2.80;;;;;;;16.95;96.78;99920.36;105153;1271;66633;-75
2022/07/24 05:05:44;;;;;;;8.40;3.10;;;;;;;16.97;95.79;99916.38;105297;1271;74525;-76
2022/07/24 05:08:51;;;;;;;8.30;2.90;;;;;;;16.96;95.32;99918.81;105223;1271;60278;-76
2022/07/24 05:11:40;;;;;;;7.60;3.20;;;;;;;16.99;95.51;99924.40;105776;1271;60480;-77
2022/07/24 05:14:28;;;;;;;7.20;3.10;;;;;;;17.02;94.70;99926.25;106306;1271;73844;-76
2022/07/24 05:17:16;;;;;;;7.70;3.10;;;;;;;17.02;94.68;99927.70;106860;1271;68030;-76
2022/07/24 05:20:07;;;;;;;10.50;3.40;;;;;;;17.02;94.32;99931.98;107684;1271;72707;-76
2022/07/24 05:22:54;;;;;;;9.80;3.60;;;;;;;17.00;94.23;99936.27;106148;1271;250514;-77
2022/07/24 05:25:42;;;;;;;8.10;3.20;;;;;;;16.95;94.41;99936.29;106049;1271;61011;-75
2022/07/24 05:28:36;;;;;;;7.80;3.30;;;;;;;16.92;94.62;99937.19;105440;1271;73322;-78
2022/07/24 05:31:25;;;;;;;6.90;2.60;;;;;;;16.88;94.80;99941.48;105265;1273;69012;-77
2022/07/24 05:34:13;;;;;;;7.10;2.80;;;;;;;16.83;94.78;99947.20;105171;1271;74447;-77
2022/07/24 05:37:01;;;;;;;8.60;2.70;;;;;;;16.78;95.05;99944.00;105683;1271;59700;-75
2022/07/24 05:39:49;;;;;;;7.00;2.50;;;;;;;16.77;95.30;99948.58;105306;1271;62275;-77
2022/07/24 05:42:44;;;;;;;8.30;2.60;;;;;;;16.82;95.38;99953.62;105463;1271;73330;-77
2022/07/24 05:45:32;;;;;;;7.40;2.90;;;;;;;16.86;95.15;99957.30;105242;1271;66809;-76
2022/07/24 05:48:20;;;;;;;6.80;2.60;;;;;;;16.87;94.74;99957.96;105185;1271;73495;-76
2022/07/24 05:51:08;;;;;;;6.60;2.30;;;;;;;16.85;94.61;99958.31;105140;1271;59857;-77
2022/07/24 05:53:57;;;;;;;8.50;2.90;;;;;;;16.87;94.71;99960.97;105445;1271;62142;-75
2022/07/24 05:56:45;;;;;;;9.50;2.30;;;;;;;17.02;94.46;99959.21;105276;1271;70728;-77
2022/07/24 05:59:33;;;;;;;8.50;2.50;;;;;;;17.31;93.38;99962.95;105134;1271;68457;-75
2022/07/24 06:02:21;;;;;;;7.30;2.60;;;;;;;17.67;92.07;99965.70;105163;1271;74690;-77
2022/07/24 06:05:09;;;;;;;8.80;2.90;;;;;;;17.93;90.33;99968.34;105505;1271;61329;-76
2022/07/24 06:07:58;;;;;;;7.20;2.40;;;;;;;18.02;88.56;99973.77;105444;1271;59563;-77
2022/07/24 06:10:46;;;;;;;5.90;2.10;;;;;;;18.00;87.95;99975.08;105389;1271;73777;-76
2022/07/24 06:13:35;;;;;;;6.70;2.20;;;;;;;17.89;87.43;99977.15;105182;1271;66747;-75
2022/07/24 06:16:23;;;;;;;6.40;2.20;;;;;;;17.83;87.38;99974.55;105259;1271;71572;-76
2022/07/24 06:19:11;;;;;;;6.70;2.50;;;;;;;17.91;87.40;99975.70;105082;1274;59765;-75
2022/07/24 06:22:00;;;;;;;7.40;2.20;;;;;;;18.11;86.58;99978.67;105309;1271;59666;-76
2022/07/24 06:24:48;;;;;;;7.20;2.20;;;;;;;18.62;84.36;99980.76;104981;1271;71957;-76
2022/07/24 06:27:45;;;;;;;5.30;1.70;;;;;;;19.71;80.24;99978.65;105167;1271;69575;-75
2022/07/24 06:30:33;;;;;;;5.80;1.70;;;;;;;21.11;73.81;99972.73;105176;1271;72793;-76
2022/07/24 06:33:22;;;;;;;8.20;1.90;;;;;;;21.98;69.10;99967.27;105183;1271;59673;-76
2022/07/24 06:36:10;;;;;;;5.60;1.80;;;;;;;22.59;65.95;99969.19;105516;1273;61215;-75
2022/07/24 06:38:58;;;;;;;7.80;1.80;;;;;;;23.40;61.96;99965.67;105527;1271;73260;-75
2022/07/24 06:41:48;;;;;;;6.30;1.80;;;;;;;23.39;59.97;99962.59;105217;1271;69533;-77
2022/07/24 06:44:44;;;;;;;6.10;1.70;;;;;;;23.09;60.83;99963.49;105104;1273;74900;-76
2022/07/24 06:47:32;;;;;;;6.90;1.60;;;;;;;22.53;61.13;99971.98;105358;1271;59749;-78
2022/07/24 06:50:20;;;;;;;7.00;1.40;;;;;;;21.99;62.46;99979.81;105226;1271;61043;-77
2022/07/24 06:53:12;;;;;;;6.30;1.80;;;;;;;21.33;64.03;99983.45;105367;1271;71270;-77
2022/07/24 06:56:01;;;;;;;6.60;2.10;;;;;;;20.84;65.44;99987.92;105325;1271;68558;-79
2022/07/24 06:58:51;;;;;;;6.90;2.10;;;;;;;20.59;66.98;99996.25;105465;1271;74379;-77
2022/07/24 07:01:39;;;;;;;7.00;2.00;;;;;;;20.52;67.37;99994.29;105387;1271;59827;-76
2022/07/24 07:04:27;;;;;;;7.60;1.90;;;;;;;20.21;68.59;99995.29;105114;1271;59542;-74
2022/07/24 07:07:16;;;;;;;7.00;2.00;;;;;;;19.86;70.30;99995.16;105276;1271;71732;-77
2022/07/24 07:10:06;;;;;;;6.00;1.80;;;;;;;19.53;71.71;99998.99;105324;1271;66946;-78
2022/07/24 07:12:54;;;;;;;5.50;1.90;;;;;;;19.28;73.32;100001.61;105308;1271;71579;-76
2022/07/24 07:15:43;;;;;;;6.20;2.10;;;;;;;19.08;74.67;100007.39;105474;1273;60132;-76
2022/07/24 07:18:31;;;;;;;6.00;2.20;;;;;;;18.89;75.58;100005.75;105512;1271;59391;-76
2022/07/24 07:21:26;;;;;;;6.60;1.80;;;;;;;18.81;76.33;100006.13;105663;1271;73813;-75
2022/07/24 07:24:14;;;;;;;6.20;1.90;;;;;;;18.76;76.90;100002.17;105436;1271;68064;-78
2022/07/24 07:27:03;;;;;;;6.20;2.20;;;;;;;18.76;76.87;100001.87;105733;1273;72906;-78
2022/07/24 07:29:51;;;;;;;6.10;1.60;;;;;;;18.95;76.19;100006.13;105915;1271;59673;-77
2022/07/24 07:32:40;;;;;;;6.50;2.00;;;;;;;19.28;75.06;100011.13;105775;1271;59784;-76
2022/07/24 07:35:29;;;;;;;5.80;1.80;;;;;;;19.49;74.18;100005.88;106013;1271;74928;-77
2022/07/24 07:38:16;;;;;;;7.40;2.00;;;;;;;19.63;73.66;100015.54;105816;1271;66820;-77
2022/07/24 07:41:09;;;;;;;6.10;1.80;;;;;;;19.71;72.31;100018.61;106295;1271;74523;-79
2022/07/24 07:43:58;;;;;;;6.80;2.00;;;;;;;19.72;72.10;100016.88;106026;1271;59720;-78
2022/07/24 07:46:46;;;;;;;6.50;1.90;;;;;;;19.71;72.22;100024.16;106533;1271;59631;-78
2022/07/24 07:49:34;;;;;;;6.50;2.10;;;;;;;19.67;71.92;100023.23;105793;1274;71956;-77
2022/07/24 07:52:22;;;;;;;7.40;2.20;;;;;;;19.67;72.17;100022.59;105443;1271;66830;-76
2022/07/24 07:55:10;;;;;;;6.50;2.10;;;;;;;19.72;72.04;100025.89;105749;1271;74482;-77
2022/07/24 07:57:58;;;;;;;7.30;2.00;;;;;;;19.84;72.03;100034.14;105481;1271;59582;-78
2022/07/24 08:00:54;;;;;;;7.10;1.90;;;;;;;19.99;71.29;100034.12;106069;1271;61182;-76
2022/07/24 08:03:42;;;;;;;6.50;1.90;;;;;;;19.97;69.27;100031.67;105556;1271;73697;-77
2022/07/24 08:06:31;;;;;;;7.10;1.80;;;;;;;20.01;69.46;100035.48;105916;1271;66911;-76
2022/07/24 08:09:20;;;;;;;6.80;1.90;;;;;;;19.96;68.74;100041.84;105607;1271;73353;-77
2022/07/24 08:12:08;;;;;;;6.30;2.20;;;;;;;19.90;69.32;100045.42;106038;1271;61494;-77
2022/07/24 08:15:03;;;;;;;6.60;2.00;;;;;;;19.86;68.21;100046.84;105683;1271;59691;-77
2022/07/24 08:17:57;;;;;;;5.90;1.90;;;;;;;19.80;68.62;100044.20;105518;1271;73655;-77
2022/07/24 08:20:44;;;;;;;6.50;1.80;;;;;;;19.82;68.26;100038.56;105979;1271;68070;-77
2022/07/24 08:23:33;;;;;;;6.00;2.00;;;;;;;19.91;67.21;100036.82;105711;1271;73425;-77
2022/07/24 08:26:21;;;;;;;6.30;1.90;;;;;;;20.16;66.82;100041.80;105519;1273;59784;-77
2022/07/24 08:29:09;;;;;;;7.40;2.00;;;;;;;20.31;65.47;100046.69;105711;1273;60501;-78
2022/07/24 08:31:57;;;;;;;8.90;2.10;;;;;;;20.49;65.19;100044.19;105667;1273;74707;-77
2022/07/24 08:34:45;;;;;;;6.60;2.00;;;;;;;20.52;65.22;100043.64;105231;1271;67112;-76
2022/07/24 08:37:38;;;;;;;5.80;2.00;;;;;;;20.60;66.08;100056.20;105248;1271;72904;-77
2022/07/24 08:40:38;;;;;;;5.60;1.70;;;;;;;20.63;64.75;100054.27;105690;1271;59671;-78
2022/07/24 08:43:27;;;;;;;6.60;1.80;;;;;;;20.56;64.90;100052.40;106505;1273;60581;-74
2022/07/24 08:46:16;;;;;;;7.40;1.90;;;;;;;20.44;64.53;100060.48;106082;1271;73601;-79
2022/07/24 08:49:12;;;;;;;6.00;1.80;;;;;;;20.35;64.86;100065.52;106230;1271;65615;-76
2022/07/24 08:52:04;;;;;;;6.20;1.80;;;;;;;20.19;65.40;100070.45;106223;1273;72855;-78
2022/07/24 08:54:54;;;;;;;6.70;1.90;;;;;;;20.25;66.00;100065.50;106268;1271;59570;-77
2022/07/24 08:57:42;;;;;;;6.80;1.70;;;;;;;20.40;65.67;100067.05;105509;1271;60561;-77
2022/07/24 09:00:33;;;;;;;6.70;1.70;;;;;;;20.69;64.47;100075.93;105353;1271;73761;-77
2022/07/24 09:03:20;;;;;;;7.30;2.00;;;;;;;21.92;61.58;100060.38;105331;1271;68075;-79
2022/07/24 09:06:10;;;;;;;6.70;1.90;;;;;;;22.96;57.49;100054.27;105137;1270;72862;-81
2022/07/24 09:09:02;;;;;;;5.70;1.80;;;;;;;23.55;55.03;100053.02;105202;1271;59781;-79
2022/07/24 09:12:13;;;;;;;6.40;1.60;;;;;;;24.33;53.51;100054.09;105375;1273;60416;-78
2022/07/24 09:15:11;;;;;;;6.40;1.90;;;;;;;24.65;51.73;100055.13;105544;1271;73261;-77
2022/07/24 09:17:59;;;;;;;6.90;1.90;;;;;;;25.46;49.58;100054.33;104938;1273;67328;-79
2022/07/24 09:20:48;;;;;;;6.10;1.70;;;;;;;26.59;47.39;100048.64;105161;1271;73421;-76
2022/07/24 09:23:41;;;;;;;6.70;2.20;;;;;;;26.63;46.55;100048.60;105247;1271;59665;-78
2022/07/24 09:26:45;;;;;;;8.70;2.40;;;;;;;26.25;47.57;100056.88;105166;1271;62113;-79
2022/07/24 09:29:35;;;;;;;8.60;2.70;;;;;;;25.58;48.66;100064.77;105210;1271;73670;-80
2022/07/24 09:32:24;;;;;;;6.00;2.10;;;;;;;25.02;49.44;100071.48;105102;1271;68074;-79
2022/07/24 09:35:14;;;;;;;6.30;2.00;;;;;;;24.40;50.54;100074.76;105082;1271;71648;-80
2022/07/24 09:38:05;;;;;;;7.00;2.60;;;;;;;23.93;51.98;100078.53;105413;1271;59681;-80
2022/07/24 09:40:56;;;;;;;6.20;1.90;;;;;;;24.05;52.55;100081.47;105526;1271;60698;-80
2022/07/24 09:43:45;;;;;;;7.50;1.70;;;;;;;24.87;49.89;100086.02;105326;1271;74835;-78
2022/07/24 09:46:34;;;;;;;5.90;1.90;;;;;;;25.14;48.91;100079.49;105153;1271;68194;-79
2022/07/24 09:49:23;;;;;;;5.30;1.60;;;;;;;25.08;48.43;100086.13;105409;1271;72846;-78
2022/07/24 09:52:16;;;;;;;8.10;1.80;;;;;;;24.47;49.76;100088.10;105264;1271;59801;-81
2022/07/24 09:55:20;;;;;;;5.90;1.90;;;;;;;23.84;51.01;100092.71;105301;1271;59703;-80
2022/07/24 09:58:17;;;;;;;10.30;2.00;;;;;;;23.36;53.08;100091.30;105018;1271;73958;-81
2022/07/24 10:01:08;;;;;;;6.50;2.00;;;;;;;23.02;54.21;100096.48;105442;1271;68065;-82
2022/07/24 10:04:00;;;;;;;7.20;1.90;;;;;;;22.81;55.03;100094.63;105444;1271;73785;-80
2022/07/24 10:06:51;;;;;;;7.40;2.10;;;;;;;22.56;56.08;100101.08;105229;1271;59621;-79
2022/07/24 10:09:44;;;;;;;6.00;2.00;;;;;;;22.30;57.27;100110.44;105072;1271;59696;-80
2022/07/24 10:12:34;;;;;;;6.60;1.90;;;;;;;21.96;57.99;100115.87;105280;1271;73733;-80
2022/07/24 10:15:29;;;;;;;6.10;2.10;;;;;;;21.65;59.61;100122.41;105183;1271;67670;-78
2022/07/24 10:18:19;;;;;;;6.40;2.00;;;;;;;21.44;60.48;100128.33;105437;1271;72946;-81
2022/07/24 10:21:11;;;;;;;7.20;1.90;;;;;;;22.21;58.71;100122.70;105291;1271;59783;-79
2022/07/24 10:24:34;;;;;;;6.40;2.00;;;;;;;22.76;56.01;100120.63;105070;1271;60500;-79
2022/07/24 10:27:24;;;;;;;8.80;2.30;;;;;;;23.07;54.81;100114.20;105213;1271;73382;-77
2022/07/24 10:30:12;;;;;;;7.50;1.80;;;;;;;22.80;55.03;100123.23;105433;1271;67756;-79
2022/07/24 10:33:01;;;;;;;7.90;2.20;;;;;;;22.51;56.00;100131.16;105702;1271;73961;-79
2022/07/24 10:35:50;;;;;;;6.80;1.90;;;;;;;22.38;56.27;100132.02;105502;1271;59650;-79
2022/07/24 10:38:45;;;;;;;6.70;2.00;;;;;;;22.32;56.39;100134.05;105387;1271;60980;-79
2022/07/24 10:41:34;;;;;;;5.80;1.90;;;;;;;22.11;56.37;100134.23;105284;1271;71979;-81
2022/07/24 10:44:22;;;;;;;7.50;2.30;;;;;;;21.86;57.62;100132.73;105219;1271;68037;-79
2022/07/24 10:47:13;;;;;;;7.50;2.10;;;;;;;21.65;58.55;100140.98;105380;1271;72879;-78
2022/07/24 10:50:04;;;;;;;6.60;2.20;;;;;;;21.50;58.95;100140.50;105210;1271;60001;-79
2022/07/24 10:52:53;;;;;;;7.40;2.20;;;;;;;21.48;59.20;100140.72;105276;1271;59577;-80
2022/07/24 10:55:41;;;;;;;8.30;2.20;;;;;;;21.63;58.83;100138.19;105160;1272;74193;-80
2022/07/24 10:58:30;;;;;;;6.90;2.10;;;;;;;21.64;59.18;100139.55;105135;1274;66272;-80
2022/07/24 11:01:48;;;;;;;6.50;2.00;;;;;;;21.66;58.99;100133.09;105263;1271;72633;-80
2022/07/24 11:04:36;;;;;;;8.70;2.10;;;;;;;22.22;58.05;100140.92;105543;1271;60012;-79
2022/07/24 11:07:24;;;;;;;6.40;2.10;;;;;;;22.67;56.22;100136.96;105347;1271;60560;-81
2022/07/24 11:10:15;;;;;;;6.70;2.40;;;;;;;22.76;55.01;100132.78;105677;1271;72047;-82
2022/07/24 11:13:32;;;;;;;6.20;1.90;;;;;;;22.47;55.14;100137.80;105287;1271;68049;-80
2022/07/24 11:16:26;;;;;;;5.60;1.70;;;;;;;22.02;56.19;100147.70;105605;1271;71626;-80
2022/07/24 11:19:17;;;;;;;6.80;2.20;;;;;;;21.75;57.51;100146.23;105564;1271;59968;-82
2022/07/24 11:22:07;;;;;;;6.30;2.10;;;;;;;21.81;57.70;100150.21;105382;1271;61208;-81
2022/07/24 11:25:13;;;;;;;9.80;2.40;;;;;;;21.77;56.86;100157.21;105269;1271;73301;-81
2022/07/24 11:28:07;;;;;;;7.70;2.20;;;;;;;21.71;57.23;100163.65;105258;1271;67675;-79
2022/07/24 11:30:55;;;;;;;7.80;2.10;;;;;;;21.66;57.98;100163.58;105290;1271;72946;-79
2022/07/24 11:33:45;;;;;;;9.10;2.20;;;;;;;21.72;58.26;100170.45;105358;1271;60757;-81
2022/07/24 11:36:34;;;;;;;7.60;2.20;;;;;;;21.83;58.47;100173.24;105556;1273;59765;-81
2022/07/24 11:39:36;;;;;;;7.40;2.40;;;;;;;21.99;58.05;100173.96;105513;1271;71791;-80
2022/07/24 11:42:24;;;;;;;8.00;2.50;;;;;;;21.76;57.55;100177.70;105383;1271;68910;-80
2022/07/24 11:45:12;;;;;;;7.70;2.00;;;;;;;21.59;57.44;100178.13;105311;1271;73586;-82
2022/07/24 11:48:00;;;;;;;8.20;2.10;;;;;;;21.51;58.48;100179.80;105287;1271;60118;-81
2022/07/24 11:50:48;;;;;;;6.40;2.20;;;;;;;21.40;58.92;100169.89;105401;1271;59578;-78
2022/07/24 11:53:36;;;;;;;7.20;2.90;;;;;;;21.29;59.16;100170.61;105440;1273;73301;-81
2022/07/24 11:56:31;;;;;;;7.60;2.30;;;;;;;21.29;59.40;100171.85;105368;1271;68480;-79
2022/07/24 11:59:24;;;;;;;9.30;2.40;;;;;;;21.35;59.64;100172.09;105176;1272;72939;-79
2022/07/24 12:02:12;;;;;;;6.70;2.00;;;;;;;21.43;59.35;100170.72;105231;1271;59639;-79
2022/07/24 12:05:00;;;;;;;9.60;2.20;;;;;;;21.45;58.74;100170.05;105620;1271;59638;-80
2022/07/24 12:07:49;;;;;;;9.80;2.30;;;;;;;21.56;59.05;100173.45;106413;1273;72144;-80
2022/07/24 12:10:37;;;;;;;7.90;2.70;;;;;;;21.66;58.90;100176.27;105944;1271;68484;-81
2022/07/24 12:13:29;;;;;;;6.30;2.50;;;;;;;21.72;57.87;100179.48;105269;1271;74402;-81
2022/07/24 12:16:26;;;;;;;8.10;2.30;;;;;;;21.81;58.10;100181.84;105735;1272;59785;-81
2022/07/24 12:19:24;;;;;;;8.10;2.20;;;;;;;21.76;57.33;100183.21;105410;1271;59938;-80
2022/07/24 12:22:12;;;;;;;5.70;2.10;;;;;;;21.80;57.73;100186.42;105336;1271;73269;-80
2022/07/24 12:25:01;;;;;;;6.50;1.90;;;;;;;21.91;57.97;100185.77;105179;1271;69569;-80
2022/07/24 12:27:52;;;;;;;7.10;2.30;;;;;;;22.03;57.71;100183.55;105405;1273;72841;-80
2022/07/24 12:30:50;;;;;;;8.30;2.40;;;;;;;21.93;56.79;100183.07;105173;1271;59832;-80
2022/07/24 12:33:38;;;;;;;7.80;3.00;;;;;;;21.65;57.30;100193.08;105132;1273;60561;-79
2022/07/24 12:36:27;;;;;;;7.10;2.30;;;;;;;21.41;57.95;100192.47;105305;1271;74697;-80
2022/07/24 12:39:15;;;;;;;7.10;2.90;;;;;;;21.28;58.71;100192.05;105437;1273;67724;-80
2022/07/24 12:42:03;;;;;;;5.80;1.80;;;;;;;21.35;58.92;100192.30;105186;1273;74352;-79
2022/07/24 12:44:52;;;;;;;7.00;2.10;;;;;;;21.38;58.49;100193.85;105357;1271;59657;-79
2022/07/24 12:48:20;;;;;;;6.30;2.40;;;;;;;21.38;58.52;100194.08;105435;1271;59633;-79
2022/07/24 12:51:12;;;;;;;6.60;2.10;;;;;;;21.30;59.10;100189.23;105189;1271;73268;-79
2022/07/24 12:54:00;;;;;;;7.30;2.40;;;;;;;21.22;60.03;100190.95;105235;1271;68073;-79
2022/07/24 12:56:58;;;;;;;6.90;2.40;;;;;;;21.12;60.66;100188.90;105443;1272;72854;-78
2022/07/24 12:59:49;;;;;;;6.40;2.20;;;;;;;21.01;60.86;100195.30;105336;1271;59682;-79
2022/07/24 13:02:38;;;;;;;7.50;2.40;;;;;;;20.92;61.33;100193.77;104966;1272;60577;-80
2022/07/24 13:05:45;;;;;;;7.10;2.40;;;;;;;20.94;61.68;100190.30;105266;1271;73695;-79